sensor_id;sensor_type;location;lat;lon;timestamp;P1;durP1;ratioP1;P2;durP2;ratioP2
4638;SDS011;2332;38.646;-9.154;2022-10-30T00:00:27;7.30;;;3.20;;
4638;SDS011;2332;38.646;-9.154;2022-10-30T00:02:53;14.90;;;3.67;;
4638;SDS011;2332;38.646;-9.154;2022-10-30T00:05:19;14.10;;;3.63;;
4638;SDS011;2332;38.646;-9.154;2022-10-30T00:07:48;11.00;;;4.10;;
4638;SDS011;2332;38.646;-9.154;2022-10-30T00:10:14;8.80;;;3.47;;
4638;SDS011;2332;38.646;-9.154;2022-10-30T00:12:40;8.33;;;3.80;;
4638;SDS011;2332;38.646;-9.154;2022-10-30T00:15:06;14.17;;;4.20;;
4638;SDS011;2332;38.646;-9.154;2022-10-30T00:17:32;12.40;;;3.80;;
4638;SDS011;2332;38.646;-9.154;2022-10-30T00:19:57;8.87;;;3.73;;
4638;SDS011;2332;38.646;-9.154;2022-10-30T00:22:23;8.47;;;3.63;;
4638;SDS011;2332;38.646;-9.154;2022-10-30T00:24:51;12.37;;;4.77;;
4638;SDS011;2332;38.646;-9.154;2022-10-30T00:27:17;8.73;;;3.80;;
4638;SDS011;2332;38.646;-9.154;2022-10-30T00:29:43;10.50;;;4.13;;
4638;SDS011;2332;38.646;-9.154;2022-10-30T00:32:09;18.80;;;7.17;;
4638;SDS011;2332;38.646;-9.154;2022-10-30T00:34:34;18.10;;;6.63;;
4638;SDS011;2332;38.646;-9.154;2022-10-30T00:37:00;12.50;;;6.00;;
4638;SDS011;2332;38.646;-9.154;2022-10-30T00:39:25;14.20;;;5.37;;
4638;SDS011;2332;38.646;-9.154;2022-10-30T00:41:51;10.80;;;5.20;;
4638;SDS011;2332;38.646;-9.154;2022-10-30T00:47:01;11.50;;;4.03;;
4638;SDS011;2332;38.646;-9.154;2022-10-30T00:49:33;10.97;;;4.97;;
4638;SDS011;2332;38.646;-9.154;2022-10-30T00:52:02;15.63;;;4.53;;
4638;SDS011;2332;38.646;-9.154;2022-10-30T00:54:29;15.07;;;5.00;;
4638;SDS011;2332;38.646;-9.154;2022-10-30T00:56:54;16.70;;;5.83;;
4638;SDS011;2332;38.646;-9.154;2022-10-30T00:59:24;16.47;;;5.30;;
4638;SDS011;2332;38.646;-9.154;2022-10-30T01:01:52;22.70;;;5.77;;
4638;SDS011;2332;38.646;-9.154;2022-10-30T01:04:17;20.07;;;6.20;;
4638;SDS011;2332;38.646;-9.154;2022-10-30T01:06:44;17.27;;;5.80;;
4638;SDS011;2332;38.646;-9.154;2022-10-30T01:09:12;18.17;;;6.37;;
4638;SDS011;2332;38.646;-9.154;2022-10-30T01:11:38;16.63;;;6.00;;
4638;SDS011;2332;38.646;-9.154;2022-10-30T01:14:05;18.23;;;5.77;;
4638;SDS011;2332;38.646;-9.154;2022-10-30T01:27:22;12.67;;;6.27;;
4638;SDS011;2332;38.646;-9.154;2022-10-30T01:36:15;19.07;;;6.93;;
4638;SDS011;2332;38.646;-9.154;2022-10-30T01:38:39;15.20;;;6.50;;
4638;SDS011;2332;38.646;-9.154;2022-10-30T01:41:08;17.17;;;6.63;;
4638;SDS011;2332;38.646;-9.154;2022-10-30T01:43:34;13.60;;;5.93;;
4638;SDS011;2332;38.646;-9.154;2022-10-30T01:46:09;19.00;;;5.63;;
4638;SDS011;2332;38.646;-9.154;2022-10-30T01:51:43;17.90;;;5.43;;
4638;SDS011;2332;38.646;-9.154;2022-10-30T01:54:37;13.10;;;5.90;;
4638;SDS011;2332;38.646;-9.154;2022-10-30T02:02:31;15.90;;;6.33;;
4638;SDS011;2332;38.646;-9.154;2022-10-30T02:04:57;12.93;;;5.17;;
4638;SDS011;2332;38.646;-9.154;2022-10-30T02:07:23;16.60;;;6.20;;
4638;SDS011;2332;38.646;-9.154;2022-10-30T02:09:50;14.77;;;6.07;;
4638;SDS011;2332;38.646;-9.154;2022-10-30T02:12:16;12.90;;;5.83;;
4638;SDS011;2332;38.646;-9.154;2022-10-30T02:14:43;14.70;;;5.23;;
4638;SDS011;2332;38.646;-9.154;2022-10-30T02:17:10;15.13;;;6.03;;
4638;SDS011;2332;38.646;-9.154;2022-10-30T02:19:36;19.93;;;5.97;;
4638;SDS011;2332;38.646;-9.154;2022-10-30T02:22:02;22.43;;;6.83;;
4638;SDS011;2332;38.646;-9.154;2022-10-30T02:24:28;14.83;;;5.87;;
4638;SDS011;2332;38.646;-9.154;2022-10-30T02:26:54;13.93;;;5.57;;
4638;SDS011;2332;38.646;-9.154;2022-10-30T02:29:19;18.10;;;5.70;;
4638;SDS011;2332;38.646;-9.154;2022-10-30T02:31:46;15.43;;;5.83;;
4638;SDS011;2332;38.646;-9.154;2022-10-30T02:34:11;13.60;;;5.53;;
4638;SDS011;2332;38.646;-9.154;2022-10-30T02:36:37;13.43;;;5.80;;
4638;SDS011;2332;38.646;-9.154;2022-10-30T02:39:03;16.67;;;6.10;;
4638;SDS011;2332;38.646;-9.154;2022-10-30T02:41:28;21.27;;;5.90;;
4638;SDS011;2332;38.646;-9.154;2022-10-30T02:43:54;18.13;;;5.30;;
4638;SDS011;2332;38.646;-9.154;2022-10-30T02:46:20;16.10;;;5.20;;
4638;SDS011;2332;38.646;-9.154;2022-10-30T02:48:45;11.30;;;5.20;;
4638;SDS011;2332;38.646;-9.154;2022-10-30T02:51:11;13.20;;;5.57;;
4638;SDS011;2332;38.646;-9.154;2022-10-30T02:53:37;16.40;;;5.60;;
4638;SDS011;2332;38.646;-9.154;2022-10-30T02:56:06;11.70;;;5.53;;
4638;SDS011;2332;38.646;-9.154;2022-10-30T02:58:33;15.90;;;5.13;;
4638;SDS011;2332;38.646;-9.154;2022-10-30T03:01:09;12.17;;;5.60;;
4638;SDS011;2332;38.646;-9.154;2022-10-30T03:03:35;16.50;;;6.47;;
4638;SDS011;2332;38.646;-9.154;2022-10-30T03:06:01;16.37;;;5.90;;
4638;SDS011;2332;38.646;-9.154;2022-10-30T03:08:28;18.80;;;5.70;;
4638;SDS011;2332;38.646;-9.154;2022-10-30T03:11:00;10.50;;;5.83;;
4638;SDS011;2332;38.646;-9.154;2022-10-30T03:13:28;16.70;;;5.73;;
4638;SDS011;2332;38.646;-9.154;2022-10-30T03:15:59;16.53;;;5.70;;
4638;SDS011;2332;38.646;-9.154;2022-10-30T03:18:28;17.70;;;5.80;;
4638;SDS011;2332;38.646;-9.154;2022-10-30T03:20:55;17.97;;;5.83;;
4638;SDS011;2332;38.646;-9.154;2022-10-30T03:23:23;11.23;;;5.67;;
4638;SDS011;2332;38.646;-9.154;2022-10-30T03:25:56;13.60;;;5.80;;
4638;SDS011;2332;38.646;-9.154;2022-10-30T03:28:22;14.77;;;5.50;;
4638;SDS011;2332;38.646;-9.154;2022-10-30T03:30:49;11.27;;;5.20;;
4638;SDS011;2332;38.646;-9.154;2022-10-30T03:33:15;18.10;;;5.90;;
4638;SDS011;2332;38.646;-9.154;2022-10-30T03:35:44;15.60;;;5.33;;
4638;SDS011;2332;38.646;-9.154;2022-10-30T03:38:13;11.70;;;5.00;;
4638;SDS011;2332;38.646;-9.154;2022-10-30T03:40:39;14.33;;;6.20;;
4638;SDS011;2332;38.646;-9.154;2022-10-30T03:43:05;14.77;;;5.00;;
4638;SDS011;2332;38.646;-9.154;2022-10-30T03:45:31;15.20;;;6.63;;
4638;SDS011;2332;38.646;-9.154;2022-10-30T03:47:58;14.13;;;5.23;;
4638;SDS011;2332;38.646;-9.154;2022-10-30T03:50:25;10.83;;;5.83;;
4638;SDS011;2332;38.646;-9.154;2022-10-30T03:52:52;22.97;;;6.77;;
4638;SDS011;2332;38.646;-9.154;2022-10-30T03:55:18;13.93;;;6.57;;
4638;SDS011;2332;38.646;-9.154;2022-10-30T03:57:43;16.50;;;5.70;;
4638;SDS011;2332;38.646;-9.154;2022-10-30T04:00:09;10.27;;;6.00;;
4638;SDS011;2332;38.646;-9.154;2022-10-30T04:02:36;27.87;;;13.00;;
4638;SDS011;2332;38.646;-9.154;2022-10-30T04:05:01;22.63;;;12.87;;
4638;SDS011;2332;38.646;-9.154;2022-10-30T04:07:27;23.60;;;15.47;;
4638;SDS011;2332;38.646;-9.154;2022-10-30T04:09:53;34.37;;;15.10;;
4638;SDS011;2332;38.646;-9.154;2022-10-30T04:12:19;35.23;;;15.10;;
4638;SDS011;2332;38.646;-9.154;2022-10-30T04:14:45;27.77;;;14.20;;
4638;SDS011;2332;38.646;-9.154;2022-10-30T04:17:10;38.27;;;15.00;;
4638;SDS011;2332;38.646;-9.154;2022-10-30T04:19:36;23.77;;;12.70;;
4638;SDS011;2332;38.646;-9.154;2022-10-30T04:22:01;14.47;;;9.13;;
4638;SDS011;2332;38.646;-9.154;2022-10-30T04:24:27;21.77;;;10.60;;
4638;SDS011;2332;38.646;-9.154;2022-10-30T04:26:52;26.50;;;10.90;;
4638;SDS011;2332;38.646;-9.154;2022-10-30T04:29:18;30.73;;;11.10;;
4638;SDS011;2332;38.646;-9.154;2022-10-30T04:31:43;29.73;;;11.30;;
4638;SDS011;2332;38.646;-9.154;2022-10-30T04:34:09;20.87;;;10.87;;
4638;SDS011;2332;38.646;-9.154;2022-10-30T04:36:36;19.90;;;9.77;;
4638;SDS011;2332;38.646;-9.154;2022-10-30T04:39:01;21.40;;;10.00;;
4638;SDS011;2332;38.646;-9.154;2022-10-30T04:41:27;22.60;;;11.90;;
4638;SDS011;2332;38.646;-9.154;2022-10-30T04:43:52;26.83;;;12.63;;
4638;SDS011;2332;38.646;-9.154;2022-10-30T04:46:18;23.50;;;11.70;;
4638;SDS011;2332;38.646;-9.154;2022-10-30T04:48:43;19.23;;;10.87;;
4638;SDS011;2332;38.646;-9.154;2022-10-30T04:51:09;18.97;;;11.30;;
4638;SDS011;2332;38.646;-9.154;2022-10-30T04:53:36;20.77;;;10.67;;
4638;SDS011;2332;38.646;-9.154;2022-10-30T04:56:03;27.03;;;11.93;;
4638;SDS011;2332;38.646;-9.154;2022-10-30T04:58:29;30.87;;;13.20;;
4638;SDS011;2332;38.646;-9.154;2022-10-30T05:00:54;33.43;;;13.03;;
4638;SDS011;2332;38.646;-9.154;2022-10-30T05:03:20;25.53;;;12.50;;
4638;SDS011;2332;38.646;-9.154;2022-10-30T05:05:47;22.93;;;12.60;;
4638;SDS011;2332;38.646;-9.154;2022-10-30T05:08:29;20.03;;;13.00;;
4638;SDS011;2332;38.646;-9.154;2022-10-30T05:10:55;28.30;;;13.90;;
4638;SDS011;2332;38.646;-9.154;2022-10-30T05:13:21;29.60;;;14.13;;
4638;SDS011;2332;38.646;-9.154;2022-10-30T05:15:46;25.67;;;15.00;;
4638;SDS011;2332;38.646;-9.154;2022-10-30T05:18:12;23.10;;;12.90;;
4638;SDS011;2332;38.646;-9.154;2022-10-30T05:20:38;26.77;;;14.73;;
4638;SDS011;2332;38.646;-9.154;2022-10-30T05:23:03;29.70;;;16.40;;
4638;SDS011;2332;38.646;-9.154;2022-10-30T05:25:29;36.83;;;18.00;;
4638;SDS011;2332;38.646;-9.154;2022-10-30T05:27:59;40.90;;;17.00;;
4638;SDS011;2332;38.646;-9.154;2022-10-30T05:30:29;30.07;;;15.70;;
4638;SDS011;2332;38.646;-9.154;2022-10-30T05:33:02;31.47;;;17.37;;
4638;SDS011;2332;38.646;-9.154;2022-10-30T05:35:30;26.03;;;16.00;;
4638;SDS011;2332;38.646;-9.154;2022-10-30T05:37:57;26.77;;;15.60;;
4638;SDS011;2332;38.646;-9.154;2022-10-30T05:40:23;29.90;;;14.80;;
4638;SDS011;2332;38.646;-9.154;2022-10-30T05:42:49;32.40;;;14.20;;
4638;SDS011;2332;38.646;-9.154;2022-10-30T05:45:15;27.23;;;14.60;;
4638;SDS011;2332;38.646;-9.154;2022-10-30T05:47:41;31.23;;;15.60;;
4638;SDS011;2332;38.646;-9.154;2022-10-30T05:50:07;37.80;;;14.87;;
4638;SDS011;2332;38.646;-9.154;2022-10-30T05:52:33;28.23;;;15.73;;
4638;SDS011;2332;38.646;-9.154;2022-10-30T05:54:59;33.17;;;15.10;;
4638;SDS011;2332;38.646;-9.154;2022-10-30T05:57:28;29.37;;;16.20;;
4638;SDS011;2332;38.646;-9.154;2022-10-30T05:59:54;27.57;;;14.00;;
4638;SDS011;2332;38.646;-9.154;2022-10-30T06:02:20;29.63;;;14.67;;
4638;SDS011;2332;38.646;-9.154;2022-10-30T06:04:46;31.10;;;14.77;;
4638;SDS011;2332;38.646;-9.154;2022-10-30T06:07:11;26.40;;;14.97;;
4638;SDS011;2332;38.646;-9.154;2022-10-30T06:09:37;29.03;;;14.83;;
4638;SDS011;2332;38.646;-9.154;2022-10-30T06:12:02;22.83;;;13.43;;
4638;SDS011;2332;38.646;-9.154;2022-10-30T06:14:28;29.60;;;13.07;;
4638;SDS011;2332;38.646;-9.154;2022-10-30T06:16:53;23.90;;;12.50;;
4638;SDS011;2332;38.646;-9.154;2022-10-30T06:19:19;24.50;;;13.17;;
4638;SDS011;2332;38.646;-9.154;2022-10-30T06:21:45;28.33;;;12.80;;
4638;SDS011;2332;38.646;-9.154;2022-10-30T06:24:11;25.50;;;13.13;;
4638;SDS011;2332;38.646;-9.154;2022-10-30T06:26:37;33.33;;;14.33;;
4638;SDS011;2332;38.646;-9.154;2022-10-30T06:29:03;24.03;;;13.20;;
4638;SDS011;2332;38.646;-9.154;2022-10-30T06:31:28;23.60;;;13.07;;
4638;SDS011;2332;38.646;-9.154;2022-10-30T06:33:54;25.97;;;14.77;;
4638;SDS011;2332;38.646;-9.154;2022-10-30T06:36:19;31.50;;;13.70;;
4638;SDS011;2332;38.646;-9.154;2022-10-30T06:38:45;36.23;;;14.50;;
4638;SDS011;2332;38.646;-9.154;2022-10-30T06:41:10;29.53;;;13.40;;
4638;SDS011;2332;38.646;-9.154;2022-10-30T06:43:36;26.90;;;14.00;;
4638;SDS011;2332;38.646;-9.154;2022-10-30T06:46:01;24.23;;;13.37;;
4638;SDS011;2332;38.646;-9.154;2022-10-30T06:48:27;27.40;;;13.83;;
4638;SDS011;2332;38.646;-9.154;2022-10-30T06:50:56;30.57;;;14.90;;
4638;SDS011;2332;38.646;-9.154;2022-10-30T06:53:22;31.63;;;14.40;;
4638;SDS011;2332;38.646;-9.154;2022-10-30T06:55:55;33.30;;;15.83;;
4638;SDS011;2332;38.646;-9.154;2022-10-30T06:58:22;33.13;;;15.10;;
4638;SDS011;2332;38.646;-9.154;2022-10-30T07:00:47;33.47;;;14.80;;
4638;SDS011;2332;38.646;-9.154;2022-10-30T07:03:13;23.47;;;13.07;;
4638;SDS011;2332;38.646;-9.154;2022-10-30T07:05:39;29.87;;;12.57;;
4638;SDS011;2332;38.646;-9.154;2022-10-30T07:08:04;28.47;;;11.17;;
4638;SDS011;2332;38.646;-9.154;2022-10-30T07:10:30;18.63;;;10.40;;
4638;SDS011;2332;38.646;-9.154;2022-10-30T07:12:55;24.60;;;9.77;;
4638;SDS011;2332;38.646;-9.154;2022-10-30T07:15:22;20.70;;;9.83;;
4638;SDS011;2332;38.646;-9.154;2022-10-30T07:17:55;16.20;;;7.80;;
4638;SDS011;2332;38.646;-9.154;2022-10-30T07:20:25;18.53;;;8.97;;
4638;SDS011;2332;38.646;-9.154;2022-10-30T07:22:52;15.90;;;8.53;;
4638;SDS011;2332;38.646;-9.154;2022-10-30T07:25:18;18.57;;;8.20;;
4638;SDS011;2332;38.646;-9.154;2022-10-30T07:27:44;18.53;;;7.57;;
4638;SDS011;2332;38.646;-9.154;2022-10-30T07:30:11;23.83;;;8.77;;
4638;SDS011;2332;38.646;-9.154;2022-10-30T07:32:38;18.33;;;8.20;;
4638;SDS011;2332;38.646;-9.154;2022-10-30T07:35:04;14.43;;;7.20;;
4638;SDS011;2332;38.646;-9.154;2022-10-30T07:37:31;15.73;;;7.57;;
4638;SDS011;2332;38.646;-9.154;2022-10-30T07:39:56;9.70;;;6.30;;
4638;SDS011;2332;38.646;-9.154;2022-10-30T07:42:22;9.83;;;5.60;;
4638;SDS011;2332;38.646;-9.154;2022-10-30T07:44:48;11.33;;;6.47;;
4638;SDS011;2332;38.646;-9.154;2022-10-30T07:47:13;21.63;;;6.93;;
4638;SDS011;2332;38.646;-9.154;2022-10-30T07:49:39;13.80;;;6.60;;
4638;SDS011;2332;38.646;-9.154;2022-10-30T07:52:04;11.63;;;6.30;;
4638;SDS011;2332;38.646;-9.154;2022-10-30T07:54:30;15.00;;;6.27;;
4638;SDS011;2332;38.646;-9.154;2022-10-30T07:56:55;10.20;;;6.03;;
4638;SDS011;2332;38.646;-9.154;2022-10-30T07:59:23;18.40;;;6.40;;
4638;SDS011;2332;38.646;-9.154;2022-10-30T08:01:49;16.20;;;7.00;;
4638;SDS011;2332;38.646;-9.154;2022-10-30T08:04:14;10.10;;;7.13;;
4638;SDS011;2332;38.646;-9.154;2022-10-30T08:06:40;12.87;;;7.90;;
4638;SDS011;2332;38.646;-9.154;2022-10-30T08:09:05;11.00;;;8.50;;
4638;SDS011;2332;38.646;-9.154;2022-10-30T08:11:31;15.30;;;8.97;;
4638;SDS011;2332;38.646;-9.154;2022-10-30T08:13:56;13.53;;;8.23;;
4638;SDS011;2332;38.646;-9.154;2022-10-30T08:16:22;12.43;;;8.10;;
4638;SDS011;2332;38.646;-9.154;2022-10-30T08:18:48;14.33;;;8.87;;
4638;SDS011;2332;38.646;-9.154;2022-10-30T08:21:14;13.73;;;9.57;;
4638;SDS011;2332;38.646;-9.154;2022-10-30T08:23:39;13.97;;;8.70;;
4638;SDS011;2332;38.646;-9.154;2022-10-30T08:26:05;17.47;;;9.03;;
4638;SDS011;2332;38.646;-9.154;2022-10-30T08:28:31;11.87;;;7.97;;
4638;SDS011;2332;38.646;-9.154;2022-10-30T08:30:57;12.63;;;7.53;;
4638;SDS011;2332;38.646;-9.154;2022-10-30T08:33:23;13.73;;;8.00;;
4638;SDS011;2332;38.646;-9.154;2022-10-30T08:35:49;12.67;;;8.10;;
4638;SDS011;2332;38.646;-9.154;2022-10-30T08:38:16;14.67;;;6.93;;
4638;SDS011;2332;38.646;-9.154;2022-10-30T08:40:41;15.63;;;7.63;;
4638;SDS011;2332;38.646;-9.154;2022-10-30T08:43:07;16.73;;;7.70;;
4638;SDS011;2332;38.646;-9.154;2022-10-30T08:45:33;11.50;;;7.70;;
4638;SDS011;2332;38.646;-9.154;2022-10-30T08:47:59;12.73;;;6.50;;
4638;SDS011;2332;38.646;-9.154;2022-10-30T08:50:27;16.60;;;6.50;;
4638;SDS011;2332;38.646;-9.154;2022-10-30T08:52:53;15.80;;;6.33;;
4638;SDS011;2332;38.646;-9.154;2022-10-30T08:55:18;10.03;;;6.07;;
4638;SDS011;2332;38.646;-9.154;2022-10-30T08:57:44;14.33;;;5.27;;
4638;SDS011;2332;38.646;-9.154;2022-10-30T09:00:10;8.53;;;6.03;;
4638;SDS011;2332;38.646;-9.154;2022-10-30T09:02:36;18.03;;;6.50;;
4638;SDS011;2332;38.646;-9.154;2022-10-30T09:05:05;7.00;;;5.10;;
4638;SDS011;2332;38.646;-9.154;2022-10-30T09:07:31;19.30;;;6.00;;
4638;SDS011;2332;38.646;-9.154;2022-10-30T09:09:57;13.10;;;5.30;;
4638;SDS011;2332;38.646;-9.154;2022-10-30T09:12:23;15.13;;;6.07;;
4638;SDS011;2332;38.646;-9.154;2022-10-30T09:14:48;6.97;;;4.93;;
4638;SDS011;2332;38.646;-9.154;2022-10-30T09:17:14;9.60;;;5.07;;
4638;SDS011;2332;38.646;-9.154;2022-10-30T09:19:39;10.33;;;4.20;;
4638;SDS011;2332;38.646;-9.154;2022-10-30T09:22:05;13.07;;;4.40;;
4638;SDS011;2332;38.646;-9.154;2022-10-30T09:24:31;7.90;;;4.33;;
4638;SDS011;2332;38.646;-9.154;2022-10-30T09:26:56;10.20;;;4.60;;
4638;SDS011;2332;38.646;-9.154;2022-10-30T09:29:22;8.23;;;4.40;;
4638;SDS011;2332;38.646;-9.154;2022-10-30T09:31:48;14.57;;;4.83;;
4638;SDS011;2332;38.646;-9.154;2022-10-30T09:34:16;8.97;;;3.70;;
4638;SDS011;2332;38.646;-9.154;2022-10-30T09:36:41;9.57;;;3.97;;
4638;SDS011;2332;38.646;-9.154;2022-10-30T09:39:11;6.53;;;3.67;;
4638;SDS011;2332;38.646;-9.154;2022-10-30T10:00:16;8.70;;;5.63;;
4638;SDS011;2332;38.646;-9.154;2022-10-30T10:05:43;9.87;;;5.90;;
4638;SDS011;2332;38.646;-9.154;2022-10-30T10:11:10;9.20;;;5.97;;
4638;SDS011;2332;38.646;-9.154;2022-10-30T10:13:40;11.03;;;6.37;;
4638;SDS011;2332;38.646;-9.154;2022-10-30T10:21:42;18.70;;;5.87;;
4638;SDS011;2332;38.646;-9.154;2022-10-30T10:24:15;11.50;;;4.30;;
4638;SDS011;2332;38.646;-9.154;2022-10-30T10:32:00;8.50;;;3.73;;
4638;SDS011;2332;38.646;-9.154;2022-10-30T10:42:27;11.27;;;3.33;;
4638;SDS011;2332;38.646;-9.154;2022-10-30T10:50:31;8.33;;;3.00;;
4638;SDS011;2332;38.646;-9.154;2022-10-30T10:53:06;8.57;;;2.67;;
4638;SDS011;2332;38.646;-9.154;2022-10-30T10:55:57;5.27;;;2.93;;
4638;SDS011;2332;38.646;-9.154;2022-10-30T11:01:02;11.03;;;3.73;;
4638;SDS011;2332;38.646;-9.154;2022-10-30T11:03:47;9.40;;;4.43;;
4638;SDS011;2332;38.646;-9.154;2022-10-30T11:06:26;8.53;;;4.50;;
4638;SDS011;2332;38.646;-9.154;2022-10-30T11:08:56;9.50;;;4.90;;
4638;SDS011;2332;38.646;-9.154;2022-10-30T11:11:29;8.40;;;4.00;;
4638;SDS011;2332;38.646;-9.154;2022-10-30T11:13:55;10.57;;;4.57;;
4638;SDS011;2332;38.646;-9.154;2022-10-30T11:16:28;10.87;;;4.43;;
4638;SDS011;2332;38.646;-9.154;2022-10-30T11:19:05;9.97;;;4.70;;
4638;SDS011;2332;38.646;-9.154;2022-10-30T11:21:34;9.07;;;3.60;;
4638;SDS011;2332;38.646;-9.154;2022-10-30T11:24:03;5.53;;;3.73;;
4638;SDS011;2332;38.646;-9.154;2022-10-30T11:26:54;7.73;;;4.10;;
4638;SDS011;2332;38.646;-9.154;2022-10-30T11:29:30;9.30;;;3.67;;
4638;SDS011;2332;38.646;-9.154;2022-10-30T11:32:00;8.53;;;4.10;;
4638;SDS011;2332;38.646;-9.154;2022-10-30T11:34:30;9.70;;;4.03;;
4638;SDS011;2332;38.646;-9.154;2022-10-30T11:37:00;10.23;;;3.80;;
4638;SDS011;2332;38.646;-9.154;2022-10-30T11:39:27;7.23;;;3.90;;
4638;SDS011;2332;38.646;-9.154;2022-10-30T11:41:59;9.80;;;5.10;;
4638;SDS011;2332;38.646;-9.154;2022-10-30T11:44:37;8.13;;;3.80;;
4638;SDS011;2332;38.646;-9.154;2022-10-30T11:47:06;6.40;;;4.67;;
4638;SDS011;2332;38.646;-9.154;2022-10-30T11:52:05;7.90;;;5.30;;
4638;SDS011;2332;38.646;-9.154;2022-10-30T11:54:34;8.07;;;4.67;;
4638;SDS011;2332;38.646;-9.154;2022-10-30T11:57:01;7.37;;;4.23;;
4638;SDS011;2332;38.646;-9.154;2022-10-30T11:59:26;7.20;;;4.90;;
4638;SDS011;2332;38.646;-9.154;2022-10-30T12:01:59;13.27;;;5.40;;
4638;SDS011;2332;38.646;-9.154;2022-10-30T12:04:43;9.30;;;4.70;;
4638;SDS011;2332;38.646;-9.154;2022-10-30T12:09:55;10.37;;;3.77;;
4638;SDS011;2332;38.646;-9.154;2022-10-30T12:12:40;8.77;;;3.83;;
4638;SDS011;2332;38.646;-9.154;2022-10-30T12:17:38;14.47;;;4.60;;
4638;SDS011;2332;38.646;-9.154;2022-10-30T12:20:04;6.50;;;3.40;;
4638;SDS011;2332;38.646;-9.154;2022-10-30T12:22:32;5.70;;;3.00;;
4638;SDS011;2332;38.646;-9.154;2022-10-30T12:24:58;4.70;;;2.97;;
4638;SDS011;2332;38.646;-9.154;2022-10-30T12:27:28;11.67;;;3.23;;
4638;SDS011;2332;38.646;-9.154;2022-10-30T12:32:46;4.30;;;3.27;;
4638;SDS011;2332;38.646;-9.154;2022-10-30T12:35:33;3.77;;;2.53;;
4638;SDS011;2332;38.646;-9.154;2022-10-30T12:41:09;11.97;;;3.70;;
4638;SDS011;2332;38.646;-9.154;2022-10-30T12:43:30;3.73;;;3.10;;
4638;SDS011;2332;38.646;-9.154;2022-10-30T12:49:01;5.27;;;2.93;;
4638;SDS011;2332;38.646;-9.154;2022-10-30T12:51:38;3.97;;;2.47;;
4638;SDS011;2332;38.646;-9.154;2022-10-30T12:54:18;10.20;;;3.47;;
4638;SDS011;2332;38.646;-9.154;2022-10-30T12:57:04;5.00;;;3.13;;
4638;SDS011;2332;38.646;-9.154;2022-10-30T12:59:55;3.67;;;2.70;;
4638;SDS011;2332;38.646;-9.154;2022-10-30T13:08:10;3.30;;;2.23;;
4638;SDS011;2332;38.646;-9.154;2022-10-30T13:13:17;4.30;;;2.80;;
4638;SDS011;2332;38.646;-9.154;2022-10-30T13:15:52;7.93;;;3.67;;
4638;SDS011;2332;38.646;-9.154;2022-10-30T13:18:20;12.07;;;2.87;;
4638;SDS011;2332;38.646;-9.154;2022-10-30T13:21:32;6.60;;;2.77;;
4638;SDS011;2332;38.646;-9.154;2022-10-30T13:23:47;8.00;;;2.87;;
4638;SDS011;2332;38.646;-9.154;2022-10-30T13:32:01;5.10;;;2.07;;
4638;SDS011;2332;38.646;-9.154;2022-10-30T13:37:48;8.23;;;2.37;;
4638;SDS011;2332;38.646;-9.154;2022-10-30T13:40:16;5.50;;;2.70;;
4638;SDS011;2332;38.646;-9.154;2022-10-30T13:42:56;4.83;;;2.23;;
4638;SDS011;2332;38.646;-9.154;2022-10-30T13:45:33;4.20;;;1.63;;
4638;SDS011;2332;38.646;-9.154;2022-10-30T13:48:43;3.97;;;2.13;;
4638;SDS011;2332;38.646;-9.154;2022-10-30T13:53:59;4.90;;;1.93;;
4638;SDS011;2332;38.646;-9.154;2022-10-30T13:56:32;5.97;;;2.20;;
4638;SDS011;2332;38.646;-9.154;2022-10-30T14:09:38;2.97;;;2.00;;
4638;SDS011;2332;38.646;-9.154;2022-10-30T14:15:31;2.10;;;1.40;;
4638;SDS011;2332;38.646;-9.154;2022-10-30T14:20:36;5.90;;;2.07;;
4638;SDS011;2332;38.646;-9.154;2022-10-30T14:23:12;4.07;;;1.80;;
4638;SDS011;2332;38.646;-9.154;2022-10-30T14:25:40;2.80;;;1.50;;
4638;SDS011;2332;38.646;-9.154;2022-10-30T14:28:28;1.63;;;1.53;;
4638;SDS011;2332;38.646;-9.154;2022-10-30T14:41:51;10.70;;;4.87;;
4638;SDS011;2332;38.646;-9.154;2022-10-30T14:47:23;17.60;;;5.23;;
4638;SDS011;2332;38.646;-9.154;2022-10-30T14:58:25;10.63;;;4.20;;
4638;SDS011;2332;38.646;-9.154;2022-10-30T15:03:47;16.87;;;5.07;;
4638;SDS011;2332;38.646;-9.154;2022-10-30T15:06:21;8.20;;;4.90;;
4638;SDS011;2332;38.646;-9.154;2022-10-30T15:12:45;9.53;;;4.37;;
4638;SDS011;2332;38.646;-9.154;2022-10-30T15:14:57;7.07;;;4.27;;
4638;SDS011;2332;38.646;-9.154;2022-10-30T15:18:00;10.70;;;4.30;;
4638;SDS011;2332;38.646;-9.154;2022-10-30T15:20:25;10.33;;;4.00;;
4638;SDS011;2332;38.646;-9.154;2022-10-30T15:22:56;10.57;;;4.50;;
4638;SDS011;2332;38.646;-9.154;2022-10-30T15:25:25;10.90;;;3.80;;
4638;SDS011;2332;38.646;-9.154;2022-10-30T15:27:56;8.23;;;4.40;;
4638;SDS011;2332;38.646;-9.154;2022-10-30T15:30:23;9.50;;;3.90;;
4638;SDS011;2332;38.646;-9.154;2022-10-30T15:32:50;14.10;;;4.03;;
4638;SDS011;2332;38.646;-9.154;2022-10-30T15:35:26;9.10;;;3.33;;
4638;SDS011;2332;38.646;-9.154;2022-10-30T15:38:04;13.33;;;4.20;;
4638;SDS011;2332;38.646;-9.154;2022-10-30T15:40:32;6.83;;;3.10;;
4638;SDS011;2332;38.646;-9.154;2022-10-30T15:42:59;6.60;;;3.63;;
4638;SDS011;2332;38.646;-9.154;2022-10-30T15:45:29;8.50;;;3.80;;
4638;SDS011;2332;38.646;-9.154;2022-10-30T15:48:18;13.10;;;3.70;;
4638;SDS011;2332;38.646;-9.154;2022-10-30T15:51:01;11.47;;;4.00;;
4638;SDS011;2332;38.646;-9.154;2022-10-30T15:56:24;9.73;;;3.50;;
4638;SDS011;2332;38.646;-9.154;2022-10-30T15:58:51;6.40;;;2.93;;
4638;SDS011;2332;38.646;-9.154;2022-10-30T16:01:35;7.80;;;3.50;;
4638;SDS011;2332;38.646;-9.154;2022-10-30T16:04:12;10.37;;;3.40;;
4638;SDS011;2332;38.646;-9.154;2022-10-30T16:06:39;11.60;;;2.90;;
4638;SDS011;2332;38.646;-9.154;2022-10-30T16:09:13;11.03;;;3.43;;
4638;SDS011;2332;38.646;-9.154;2022-10-30T16:11:38;10.00;;;3.00;;
4638;SDS011;2332;38.646;-9.154;2022-10-30T16:14:07;9.10;;;2.60;;
4638;SDS011;2332;38.646;-9.154;2022-10-30T16:16:45;8.13;;;2.80;;
4638;SDS011;2332;38.646;-9.154;2022-10-30T16:19:16;4.87;;;2.83;;
4638;SDS011;2332;38.646;-9.154;2022-10-30T16:21:47;7.80;;;2.70;;
4638;SDS011;2332;38.646;-9.154;2022-10-30T16:24:13;11.30;;;3.27;;
4638;SDS011;2332;38.646;-9.154;2022-10-30T16:26:39;10.10;;;2.50;;
4638;SDS011;2332;38.646;-9.154;2022-10-30T16:31:42;5.77;;;2.57;;
4638;SDS011;2332;38.646;-9.154;2022-10-30T16:34:19;5.50;;;2.30;;
4638;SDS011;2332;38.646;-9.154;2022-10-30T16:36:59;7.37;;;3.40;;
4638;SDS011;2332;38.646;-9.154;2022-10-30T16:39:26;7.37;;;2.97;;
4638;SDS011;2332;38.646;-9.154;2022-10-30T16:41:54;8.00;;;3.00;;
4638;SDS011;2332;38.646;-9.154;2022-10-30T16:44:29;8.83;;;4.20;;
4638;SDS011;2332;38.646;-9.154;2022-10-30T16:49:47;7.57;;;4.13;;
4638;SDS011;2332;38.646;-9.154;2022-10-30T16:52:25;4.70;;;2.90;;
4638;SDS011;2332;38.646;-9.154;2022-10-30T16:54:58;7.73;;;3.17;;
4638;SDS011;2332;38.646;-9.154;2022-10-30T16:57:30;6.40;;;3.23;;
4638;SDS011;2332;38.646;-9.154;2022-10-30T16:59:57;12.13;;;3.30;;
4638;SDS011;2332;38.646;-9.154;2022-10-30T17:02:28;9.30;;;2.90;;
4638;SDS011;2332;38.646;-9.154;2022-10-30T17:05:30;10.43;;;2.87;;
4638;SDS011;2332;38.646;-9.154;2022-10-30T17:08:05;13.83;;;3.57;;
4638;SDS011;2332;38.646;-9.154;2022-10-30T17:10:59;8.07;;;3.80;;
4638;SDS011;2332;38.646;-9.154;2022-10-30T17:13:37;17.17;;;3.67;;
4638;SDS011;2332;38.646;-9.154;2022-10-30T17:16:22;8.60;;;4.57;;
4638;SDS011;2332;38.646;-9.154;2022-10-30T17:18:50;16.80;;;5.87;;
4638;SDS011;2332;38.646;-9.154;2022-10-30T17:21:20;12.43;;;5.17;;
4638;SDS011;2332;38.646;-9.154;2022-10-30T17:24:19;9.63;;;4.87;;
4638;SDS011;2332;38.646;-9.154;2022-10-30T17:26:55;7.10;;;3.97;;
4638;SDS011;2332;38.646;-9.154;2022-10-30T17:32:27;13.43;;;3.87;;
4638;SDS011;2332;38.646;-9.154;2022-10-30T17:35:11;10.20;;;3.40;;
4638;SDS011;2332;38.646;-9.154;2022-10-30T17:37:38;8.53;;;3.23;;
4638;SDS011;2332;38.646;-9.154;2022-10-30T17:40:04;16.50;;;4.20;;
4638;SDS011;2332;38.646;-9.154;2022-10-30T17:42:29;7.47;;;4.80;;
4638;SDS011;2332;38.646;-9.154;2022-10-30T17:44:55;11.90;;;6.27;;
4638;SDS011;2332;38.646;-9.154;2022-10-30T17:47:20;13.67;;;6.27;;
4638;SDS011;2332;38.646;-9.154;2022-10-30T17:49:47;7.70;;;3.93;;
4638;SDS011;2332;38.646;-9.154;2022-10-30T17:52:14;11.40;;;4.00;;